createdAt,value
2018-11-03T00:01:37.907Z,2.95
2018-11-03T00:04:05.409Z,2.95
2018-11-03T00:06:32.870Z,3.75
2018-11-03T00:09:00.351Z,3.53
2018-11-03T00:11:27.796Z,2.50
2018-11-03T00:13:55.258Z,3.78
2018-11-03T00:16:22.728Z,3.83
2018-11-03T00:18:50.173Z,2.40
2018-11-03T00:21:17.642Z,2.80
2018-11-03T00:23:45.099Z,4.12
2018-11-03T00:26:12.582Z,2.87
2018-11-03T00:28:40.091Z,3.35
2018-11-03T00:31:07.538Z,2.95
2018-11-03T00:33:35.043Z,2.35
2018-11-03T00:36:02.649Z,1.75
2018-11-03T00:38:30.084Z,2.33
2018-11-03T00:40:57.520Z,3.55
2018-11-03T00:43:24.996Z,2.15
2018-11-03T00:45:52.464Z,3.35
2018-11-03T00:48:19.915Z,2.60
2018-11-03T00:50:47.877Z,2.67
2018-11-03T00:53:15.317Z,2.55
2018-11-03T00:55:43.091Z,3.30
2018-11-03T00:58:11.485Z,2.83
2018-11-03T01:00:39.001Z,2.55
2018-11-03T01:03:06.450Z,4.35
2018-11-03T01:05:33.888Z,3.80
2018-11-03T01:08:01.323Z,3.22
2018-11-03T01:10:28.792Z,2.95
2018-11-03T01:12:56.783Z,3.25
2018-11-03T01:15:24.231Z,3.90
2018-11-03T01:17:51.675Z,2.50
2018-11-03T01:20:19.180Z,3.35
2018-11-03T01:22:46.640Z,3.45
2018-11-03T01:25:14.105Z,3.00
2018-11-03T01:27:41.539Z,3.15
2018-11-03T01:30:09.001Z,2.53
2018-11-03T01:32:37.013Z,3.58
2018-11-03T01:35:04.381Z,3.10
2018-11-03T01:37:31.868Z,2.33
2018-11-03T01:39:59.317Z,2.75
2018-11-03T01:42:26.885Z,2.97
2018-11-03T01:44:54.359Z,4.05
2018-11-03T01:47:21.800Z,3.28
2018-11-03T01:49:49.227Z,2.65
2018-11-03T01:52:16.722Z,3.20
2018-11-03T01:54:44.174Z,3.97
2018-11-03T01:57:11.614Z,2.72
2018-11-03T01:59:39.047Z,3.20
2018-11-03T02:02:10.542Z,3.65
2018-11-03T02:04:37.987Z,3.20
2018-11-03T02:07:05.732Z,3.45
2018-11-03T02:09:33.183Z,3.47
2018-11-03T02:12:00.626Z,3.72
2018-11-03T02:14:28.064Z,2.95
2018-11-03T02:16:55.564Z,4.05
2018-11-03T02:19:23.017Z,3.85
2018-11-03T02:21:50.634Z,4.18
2018-11-03T02:24:18.076Z,3.60
2018-11-03T02:26:45.527Z,3.50
2018-11-03T02:29:12.995Z,2.97
2018-11-03T02:31:40.469Z,3.85
2018-11-03T02:34:07.978Z,3.78
2018-11-03T02:36:36.334Z,3.50
2018-11-03T02:39:04.359Z,3.75
2018-11-03T02:41:31.831Z,4.55
2018-11-03T02:43:59.342Z,3.92
2018-11-03T02:46:26.764Z,3.60
2018-11-03T02:48:54.554Z,3.72
2018-11-03T02:51:22.008Z,4.00
2018-11-03T02:53:49.435Z,4.50
2018-11-03T02:56:16.896Z,3.90
2018-11-03T02:58:44.335Z,4.65
2018-11-03T03:01:11.804Z,4.20
2018-11-03T03:03:39.257Z,4.45
2018-11-03T03:06:06.872Z,5.40
2018-11-03T03:08:34.347Z,4.65
2018-11-03T03:11:01.796Z,5.35
2018-11-03T03:13:29.240Z,5.62
2018-11-03T03:15:56.695Z,5.00
2018-11-03T03:18:24.190Z,4.82
2018-11-03T03:20:51.712Z,4.80
2018-11-03T03:23:19.198Z,7.22
2018-11-03T03:25:46.637Z,6.40
2018-11-03T03:28:14.101Z,6.25
2018-11-03T03:30:41.546Z,4.62
2018-11-03T03:33:08.974Z,5.87
2018-11-03T03:35:36.410Z,6.95
2018-11-03T03:38:03.861Z,6.65
2018-11-03T03:40:31.326Z,6.00
2018-11-03T03:42:58.885Z,8.15
2018-11-03T03:45:26.346Z,7.60
2018-11-03T03:47:53.816Z,7.60
2018-11-03T03:50:21.894Z,7.85
2018-11-03T03:52:49.359Z,8.02
2018-11-03T03:55:16.950Z,7.90
2018-11-03T03:57:45.191Z,6.22
2018-11-03T04:00:12.613Z,8.35
2018-11-03T04:02:40.156Z,8.05
2018-11-03T04:05:07.624Z,7.55
2018-11-03T04:07:35.080Z,10.45
2018-11-03T04:10:02.656Z,7.37
2018-11-03T04:12:30.089Z,9.55
2018-11-03T04:14:57.562Z,8.98
2018-11-03T04:17:25.020Z,10.27
2018-11-03T04:19:52.479Z,8.77
2018-11-03T04:22:19.943Z,9.88
2018-11-03T04:24:47.405Z,9.27
2018-11-03T04:27:14.860Z,9.23
2018-11-03T04:29:48.105Z,8.48
2018-11-03T04:32:15.558Z,8.32
2018-11-03T04:34:42.997Z,9.10
2018-11-03T04:37:10.539Z,10.88
2018-11-03T04:39:37.937Z,9.07
2018-11-03T04:42:05.374Z,9.75
2018-11-03T04:44:32.829Z,13.27
2018-11-03T04:47:00.276Z,9.13
2018-11-03T04:49:27.759Z,9.30
2018-11-03T04:51:55.271Z,9.77
2018-11-03T04:54:22.733Z,9.82
2018-11-03T04:56:50.172Z,9.77
2018-11-03T04:59:17.659Z,12.40
2018-11-03T05:01:45.128Z,8.57
2018-11-03T05:04:12.697Z,11.02
2018-11-03T05:06:40.188Z,10.23
2018-11-03T05:09:07.639Z,9.88
2018-11-03T05:11:35.091Z,10.07
2018-11-03T05:14:02.673Z,9.68
2018-11-03T05:16:30.119Z,9.98
2018-11-03T05:18:57.577Z,11.40
2018-11-03T05:21:25.649Z,10.75
2018-11-03T05:23:53.143Z,11.65
2018-11-03T05:26:20.624Z,10.85
2018-11-03T05:28:48.097Z,11.02
2018-11-03T05:31:15.689Z,10.95
2018-11-03T05:33:43.048Z,11.75
2018-11-03T05:36:10.515Z,10.68
2018-11-03T05:38:38.079Z,10.90
2018-11-03T05:41:05.547Z,10.32
2018-11-03T05:43:33.039Z,10.35
2018-11-03T05:46:00.484Z,9.10
2018-11-03T05:48:27.939Z,8.45
2018-11-03T05:50:55.397Z,11.18
2018-11-03T05:53:22.856Z,9.38
2018-11-03T05:55:50.300Z,10.38
2018-11-03T05:58:17.762Z,9.70
2018-11-03T06:00:45.229Z,10.13
2018-11-03T06:03:12.798Z,11.52
2018-11-03T06:05:40.252Z,9.75
2018-11-03T06:08:07.727Z,11.27
2018-11-03T06:10:35.364Z,12.15
2018-11-03T06:13:02.829Z,10.65
2018-11-03T06:15:30.372Z,10.93
2018-11-03T06:17:57.800Z,12.95
2018-11-03T06:20:25.236Z,11.10
2018-11-03T06:22:52.966Z,11.52
2018-11-03T06:25:20.347Z,11.77
2018-11-03T06:27:47.815Z,12.37
2018-11-03T06:30:15.315Z,13.35
2018-11-03T06:32:42.789Z,11.50
2018-11-03T06:35:10.314Z,11.23
2018-11-03T06:37:37.760Z,10.57
2018-11-03T06:40:05.211Z,11.63
2018-11-03T06:42:32.670Z,12.45
2018-11-03T06:45:00.167Z,13.65
2018-11-03T06:47:27.792Z,12.77
2018-11-03T06:49:55.172Z,12.57
2018-11-03T06:52:22.957Z,12.15
2018-11-03T06:54:50.362Z,12.05
2018-11-03T06:57:17.811Z,11.52
2018-11-03T06:59:45.277Z,11.68
2018-11-03T07:02:12.808Z,11.43
2018-11-03T07:04:40.608Z,12.10
2018-11-03T07:07:08.066Z,11.23
2018-11-03T07:09:35.525Z,9.48
2018-11-03T07:12:03.020Z,11.70
2018-11-03T07:14:31.258Z,10.60
2018-11-03T07:16:58.704Z,14.60
2018-11-03T07:19:26.167Z,9.52
2018-11-03T07:21:53.608Z,12.07
2018-11-03T07:24:21.113Z,11.12
2018-11-03T07:26:48.640Z,11.12
2018-11-03T07:29:16.141Z,11.30
2018-11-03T07:31:43.609Z,13.18
2018-11-03T07:34:11.176Z,11.25
2018-11-03T07:36:38.636Z,12.20
2018-11-03T07:39:06.094Z,11.80
2018-11-03T07:41:33.628Z,11.40
2018-11-03T07:44:01.028Z,12.02
2018-11-03T07:46:28.482Z,11.95
2018-11-03T07:48:56.019Z,10.88
2018-11-03T07:51:23.586Z,11.82
2018-11-03T07:53:51.033Z,11.57
2018-11-03T07:56:18.532Z,15.10
2018-11-03T07:58:46.003Z,12.00
2018-11-03T08:01:13.510Z,11.98
2018-11-03T08:03:40.990Z,12.05
2018-11-03T08:06:08.681Z,9.95
2018-11-03T08:08:36.219Z,11.50
2018-11-03T08:11:03.687Z,11.70
2018-11-03T08:13:31.152Z,10.88
2018-11-03T08:15:58.613Z,11.38
2018-11-03T08:18:26.171Z,12.30
2018-11-03T08:20:53.640Z,11.80
2018-11-03T08:23:21.140Z,12.07
2018-11-03T08:25:48.746Z,11.93
2018-11-03T08:28:16.197Z,11.35
2018-11-03T08:30:43.676Z,11.68
2018-11-03T08:33:11.162Z,11.32
2018-11-03T08:35:38.709Z,12.13
2018-11-03T08:38:06.273Z,11.38
2018-11-03T08:40:33.742Z,11.30
2018-11-03T08:43:01.210Z,12.18
2018-11-03T08:45:28.699Z,11.63
2018-11-03T08:47:56.253Z,12.57
2018-11-03T08:50:23.819Z,13.40
2018-11-03T08:52:51.273Z,11.65
2018-11-03T08:55:18.852Z,13.18
2018-11-03T08:57:46.312Z,10.73
2018-11-03T09:00:13.928Z,12.85
2018-11-03T09:02:41.341Z,14.20
2018-11-03T09:05:08.814Z,11.45
2018-11-03T09:07:36.300Z,13.23
2018-11-03T09:10:03.801Z,12.73
2018-11-03T09:12:31.396Z,11.68
2018-11-03T09:14:58.944Z,10.93
2018-11-03T09:17:26.455Z,11.20
2018-11-03T09:19:53.909Z,10.48
2018-11-03T09:22:21.465Z,11.55
2018-11-03T09:24:48.948Z,11.38
2018-11-03T09:27:16.401Z,9.70
2018-11-03T09:29:43.999Z,12.50
2018-11-03T09:32:11.515Z,12.10
2018-11-03T09:34:39.035Z,11.63
2018-11-03T09:37:06.466Z,9.98
2018-11-03T09:39:36.206Z,9.93
2018-11-03T09:42:03.920Z,10.80
2018-11-03T09:44:31.420Z,11.25
2018-11-03T09:46:58.895Z,7.75
2018-11-03T09:49:26.679Z,10.98
2018-11-03T09:51:54.345Z,11.12
2018-11-03T09:54:21.858Z,10.95
2018-11-03T09:56:49.618Z,10.98
2018-11-03T09:59:16.851Z,9.68
2018-11-03T10:01:44.375Z,9.38
2018-11-03T10:04:11.959Z,9.55
2018-11-03T10:06:39.483Z,10.63
2018-11-03T10:09:06.910Z,9.23
2018-11-03T10:11:34.434Z,13.13
2018-11-03T10:14:03.134Z,10.90
2018-11-03T10:16:30.643Z,8.73
2018-11-03T10:18:58.203Z,11.30
2018-11-03T10:21:26.024Z,9.90
2018-11-03T10:23:53.533Z,11.80
2018-11-03T10:26:21.052Z,11.77
2018-11-03T10:28:48.482Z,11.07
2018-11-03T10:31:16.077Z,10.68
2018-11-03T10:33:43.590Z,10.60
2018-11-03T10:36:11.044Z,10.90
2018-11-03T10:38:38.484Z,10.30
2018-11-03T10:41:05.939Z,9.70
2018-11-03T10:43:33.431Z,10.48
2018-11-03T10:46:00.887Z,10.20
2018-11-03T10:48:28.573Z,11.23
2018-11-03T10:50:56.055Z,10.10
2018-11-03T10:53:23.594Z,8.48
2018-11-03T10:55:51.164Z,8.20
2018-11-03T10:58:18.615Z,10.32
2018-11-03T11:00:46.063Z,10.68
2018-11-03T11:06:08.453Z,16.70
2018-11-03T11:11:50.167Z,16.97
2018-11-03T11:14:17.754Z,9.38
2018-11-03T11:16:45.247Z,11.12
2018-11-03T11:19:12.702Z,9.93
2018-11-03T11:21:40.165Z,9.98
2018-11-03T11:24:08.128Z,9.35
2018-11-03T11:26:35.494Z,11.50
2018-11-03T11:29:02.954Z,9.13
2018-11-03T11:31:30.614Z,10.00
2018-11-03T11:33:58.102Z,10.95
2018-11-03T11:36:26.419Z,9.25
2018-11-03T11:38:53.973Z,10.85
2018-11-03T11:41:21.427Z,9.70
2018-11-03T11:43:48.865Z,9.77
2018-11-03T11:46:16.872Z,8.95
2018-11-03T11:48:44.388Z,9.13
2018-11-03T11:51:11.872Z,7.90
2018-11-03T11:53:39.474Z,9.75
2018-11-03T11:56:07.056Z,9.10
2018-11-03T11:58:34.624Z,9.05
2018-11-03T12:01:02.093Z,9.45
2018-11-03T12:03:29.586Z,9.32
2018-11-03T12:05:57.099Z,8.80
2018-11-03T12:08:24.652Z,8.73
2018-11-03T12:10:52.082Z,8.23
2018-11-03T12:13:19.556Z,8.63
2018-11-03T12:15:47.110Z,10.00
2018-11-03T12:18:14.558Z,8.57
2018-11-03T12:20:42.008Z,8.65
2018-11-03T12:23:09.516Z,9.60
2018-11-03T12:25:37.044Z,9.45
2018-11-03T12:28:04.713Z,8.63
2018-11-03T12:30:32.164Z,9.10
2018-11-03T12:32:59.619Z,7.95
2018-11-03T12:35:27.064Z,8.00
2018-11-03T12:37:54.526Z,7.60
2018-11-03T12:40:22.043Z,9.20
2018-11-03T12:42:49.534Z,11.43
2018-11-03T12:45:17.055Z,10.75
2018-11-03T12:47:44.504Z,10.10
2018-11-03T12:50:11.995Z,9.57
2018-11-03T12:52:39.480Z,10.73
2018-11-03T12:55:07.089Z,8.15
2018-11-03T12:57:35.571Z,10.02
2018-11-03T13:00:03.201Z,10.70
2018-11-03T13:02:30.843Z,13.13
2018-11-03T13:04:58.604Z,10.90
2018-11-03T13:07:26.228Z,11.77
2018-11-03T13:09:53.708Z,9.93
2018-11-03T13:12:21.344Z,10.93
2018-11-03T13:14:48.957Z,12.30
2018-11-03T13:17:16.649Z,11.80
2018-11-03T13:19:44.176Z,13.85
2018-11-03T13:22:11.816Z,11.73
2018-11-03T13:24:39.252Z,13.85
2018-11-03T13:27:06.696Z,14.25
2018-11-03T13:29:34.160Z,13.13
2018-11-03T13:32:01.637Z,12.43
2018-11-03T13:34:29.140Z,13.18
2018-11-03T13:36:56.571Z,12.77
2018-11-03T13:39:24.016Z,12.30
2018-11-03T13:41:51.561Z,13.45
2018-11-03T13:44:19.081Z,13.57
2018-11-03T13:54:07.535Z,11.88
2018-11-03T13:56:35.059Z,12.32
2018-11-03T13:59:02.571Z,16.45
2018-11-03T14:01:30.024Z,11.27
2018-11-03T14:03:57.466Z,15.73
2018-11-03T14:06:24.977Z,13.45
2018-11-03T14:08:52.423Z,12.25
2018-11-03T14:11:20.037Z,12.32
2018-11-03T14:13:47.442Z,12.82
2018-11-03T14:16:14.888Z,11.00
2018-11-03T14:18:42.335Z,11.32
2018-11-03T14:21:09.804Z,12.25
2018-11-03T14:23:37.316Z,10.48
2018-11-03T14:26:04.763Z,10.43
2018-11-03T14:28:32.218Z,9.07
2018-11-03T14:30:59.686Z,10.25
2018-11-03T14:33:27.223Z,12.20
2018-11-03T14:35:54.601Z,10.87
2018-11-03T14:38:22.037Z,11.15
2018-11-03T14:40:49.512Z,11.82
2018-11-03T14:43:16.973Z,10.25
2018-11-03T14:45:44.449Z,9.68
2018-11-03T14:48:12.356Z,10.55
2018-11-03T14:50:39.786Z,11.50
2018-11-03T14:53:08.027Z,8.95
2018-11-03T14:55:35.567Z,9.07
2018-11-03T14:58:03.081Z,9.45
2018-11-03T15:00:30.635Z,9.27
2018-11-03T15:02:58.087Z,8.93
2018-11-03T15:05:25.532Z,9.52
2018-11-03T15:07:52.984Z,8.05
2018-11-03T15:10:20.479Z,8.85
2018-11-03T15:12:47.949Z,8.93
2018-11-03T15:15:15.403Z,8.57
2018-11-03T15:17:42.851Z,8.63
2018-11-03T15:20:10.451Z,7.20
2018-11-03T15:22:38.038Z,11.32
2018-11-03T15:25:05.412Z,9.65
2018-11-03T15:27:32.854Z,9.45
2018-11-03T15:30:00.330Z,6.95
2018-11-03T15:32:27.767Z,8.48
2018-11-03T15:34:55.283Z,9.77
2018-11-03T15:37:22.662Z,8.30
2018-11-03T15:39:50.099Z,7.80
2018-11-03T15:42:17.641Z,8.70
2018-11-03T15:44:45.225Z,8.27
2018-11-03T15:47:12.670Z,9.02
2018-11-03T15:49:40.104Z,9.15
2018-11-03T15:52:07.560Z,9.05
2018-11-03T15:54:34.999Z,8.35
2018-11-03T15:57:02.511Z,7.87
2018-11-03T15:59:29.972Z,7.22
2018-11-03T16:01:57.422Z,6.72
2018-11-03T16:04:24.900Z,8.45
2018-11-03T16:06:52.327Z,7.72
2018-11-03T16:09:19.768Z,8.77
2018-11-03T16:11:47.205Z,8.13
2018-11-03T16:14:14.759Z,9.60
2018-11-03T16:16:42.407Z,8.27
2018-11-03T16:19:09.854Z,9.07
2018-11-03T16:21:37.407Z,7.80
2018-11-03T16:24:04.900Z,8.32
2018-11-03T16:26:32.408Z,8.85
2018-11-03T16:29:00.010Z,9.80
2018-11-03T16:31:27.470Z,7.40
2018-11-03T16:33:55.011Z,8.57
2018-11-03T16:36:22.451Z,9.25
2018-11-03T16:38:50.248Z,8.18
2018-11-03T16:41:17.826Z,8.27
2018-11-03T16:43:45.300Z,8.35
2018-11-03T16:46:12.726Z,8.48
2018-11-03T16:48:40.276Z,9.50
2018-11-03T16:51:07.752Z,13.65
2018-11-03T16:53:35.271Z,8.43
2018-11-03T16:56:02.718Z,8.20
2018-11-03T16:58:30.201Z,8.88
2018-11-03T17:00:57.687Z,7.50
2018-11-03T17:03:25.197Z,7.82
2018-11-03T17:05:53.499Z,7.50
2018-11-03T17:08:20.956Z,8.35
2018-11-03T17:10:48.394Z,8.38
2018-11-03T17:13:16.005Z,7.57
2018-11-03T17:15:43.494Z,6.40
2018-11-03T17:18:10.987Z,8.73
2018-11-03T17:20:38.440Z,8.88
2018-11-03T17:23:05.928Z,7.82
2018-11-03T17:25:33.381Z,7.43
2018-11-03T17:28:00.831Z,9.85
2018-11-03T17:30:28.368Z,8.48
2018-11-03T17:32:55.845Z,10.15
2018-11-03T17:35:23.306Z,7.35
2018-11-03T17:37:50.820Z,8.70
2018-11-03T17:40:18.269Z,11.10
2018-11-03T17:42:45.750Z,8.07
2018-11-03T17:45:13.226Z,8.63
2018-11-03T17:47:40.725Z,8.65
2018-11-03T17:50:08.202Z,7.75
2018-11-03T17:52:35.631Z,9.60
2018-11-03T17:55:03.068Z,8.45
2018-11-03T17:57:30.574Z,7.90
2018-11-03T17:59:58.093Z,7.95
2018-11-03T18:02:25.512Z,7.78
2018-11-03T18:04:52.970Z,10.52
2018-11-03T18:07:20.533Z,7.47
2018-11-03T18:09:48.953Z,7.68
2018-11-03T18:12:16.520Z,8.60
2018-11-03T18:14:43.966Z,8.93
2018-11-03T18:17:11.399Z,7.30
2018-11-03T18:19:39.022Z,8.57
2018-11-03T18:22:06.421Z,8.23
2018-11-03T18:24:33.903Z,10.07
2018-11-03T18:27:01.516Z,6.68
2018-11-03T18:29:28.986Z,9.23
2018-11-03T18:31:56.439Z,7.72
2018-11-03T18:34:23.997Z,8.35
2018-11-03T18:36:51.589Z,8.68
2018-11-03T18:39:19.094Z,6.90
2018-11-03T18:41:46.648Z,6.43
2018-11-03T18:44:14.023Z,8.40
2018-11-03T18:46:41.500Z,8.32
2018-11-03T18:49:08.968Z,7.22
2018-11-03T18:51:36.589Z,7.75
2018-11-03T18:54:04.074Z,8.60
2018-11-03T18:56:31.547Z,6.70
2018-11-03T18:58:59.005Z,8.07
2018-11-03T19:01:26.455Z,9.10
2018-11-03T19:03:53.913Z,7.15
2018-11-03T19:06:21.366Z,8.05
2018-11-03T19:08:48.827Z,9.30
2018-11-03T19:11:16.291Z,8.27
2018-11-03T19:13:44.090Z,10.15
2018-11-03T19:16:11.528Z,8.55
2018-11-03T19:18:39.041Z,8.40
2018-11-03T19:21:06.506Z,9.57
2018-11-03T19:23:33.977Z,8.93
2018-11-03T19:26:01.402Z,7.97
2018-11-03T19:28:28.938Z,7.20
2018-11-03T19:30:56.412Z,7.93
2018-11-03T19:33:23.897Z,7.55
2018-11-03T19:35:51.360Z,9.63
2018-11-03T19:38:18.884Z,6.72
2018-11-03T19:40:46.432Z,7.32
2018-11-03T19:43:13.927Z,7.75
2018-11-03T19:45:41.407Z,7.97
2018-11-03T19:48:08.950Z,9.05
2018-11-03T19:50:36.485Z,7.78
2018-11-03T19:53:03.935Z,7.32
2018-11-03T19:55:31.402Z,8.45
2018-11-03T19:57:58.846Z,10.10
2018-11-03T20:00:26.400Z,8.50
2018-11-03T20:02:53.882Z,6.60
2018-11-03T20:05:21.562Z,7.20
2018-11-03T20:07:49.110Z,7.57
2018-11-03T20:10:16.580Z,8.27
2018-11-03T20:12:44.036Z,8.15
2018-11-03T20:15:11.482Z,10.27
2018-11-03T20:17:38.987Z,8.95
2018-11-03T20:20:06.412Z,7.82
2018-11-03T20:22:33.872Z,8.00
2018-11-03T20:25:01.330Z,9.55
2018-11-03T20:27:28.761Z,7.12
2018-11-03T20:29:56.213Z,9.88
2018-11-03T20:32:23.711Z,9.90
2018-11-03T20:34:51.170Z,10.35
2018-11-03T20:37:18.683Z,7.28
2018-11-03T20:39:46.135Z,11.45
2018-11-03T20:42:13.590Z,9.02
2018-11-03T20:44:41.053Z,8.88
2018-11-03T20:47:08.627Z,9.30
2018-11-03T20:49:36.077Z,9.32
2018-11-03T20:52:03.563Z,10.35
2018-11-03T20:54:31.031Z,9.52
2018-11-03T20:56:58.553Z,10.68
2018-11-03T20:59:25.995Z,8.55
2018-11-03T21:01:53.516Z,7.85
2018-11-03T21:04:21.056Z,8.95
2018-11-03T21:06:48.539Z,10.65
2018-11-03T21:09:16.041Z,9.55
2018-11-03T21:11:43.532Z,9.18
2018-11-03T21:14:10.962Z,8.25
2018-11-03T21:16:38.567Z,10.38
2018-11-03T21:19:06.564Z,9.18
2018-11-03T21:21:34.051Z,9.85
2018-11-03T21:24:01.691Z,8.27
2018-11-03T21:26:29.036Z,9.27
2018-11-03T21:28:56.468Z,8.95
2018-11-03T21:31:23.904Z,15.38
2018-11-03T21:33:51.437Z,11.38
2018-11-03T21:36:18.914Z,8.00
2018-11-03T21:38:46.576Z,9.93
2018-11-03T21:41:13.999Z,11.05
2018-11-03T21:43:41.536Z,11.38
2018-11-03T21:46:09.150Z,11.93
2018-11-03T21:48:36.502Z,9.75
2018-11-03T21:51:03.999Z,11.02
2018-11-03T21:53:31.469Z,9.70
2018-11-03T21:55:59.036Z,9.60
2018-11-03T21:58:26.447Z,11.35
2018-11-03T22:00:53.913Z,9.45
2018-11-03T22:03:21.443Z,11.10
2018-11-03T22:05:48.905Z,7.20
2018-11-03T22:08:16.336Z,9.40
2018-11-03T22:10:44.436Z,8.27
2018-11-03T22:13:11.882Z,7.78
2018-11-03T22:15:39.463Z,10.23
2018-11-03T22:18:06.873Z,9.93
2018-11-03T22:20:34.327Z,10.43
2018-11-03T22:23:01.974Z,9.48
2018-11-03T22:25:29.441Z,10.10
2018-11-03T22:27:56.959Z,9.20
2018-11-03T22:30:24.404Z,8.52
2018-11-03T22:32:51.892Z,8.23
2018-11-03T22:35:19.344Z,9.05
2018-11-03T22:37:46.887Z,12.93
2018-11-03T22:40:14.359Z,8.88
2018-11-03T22:42:41.852Z,9.20
2018-11-03T22:45:09.409Z,9.38
2018-11-03T22:47:36.878Z,8.80
2018-11-03T22:50:04.329Z,11.15
2018-11-03T22:52:31.799Z,8.93
2018-11-03T22:54:59.305Z,7.60
2018-11-03T22:57:26.762Z,9.07
2018-11-03T22:59:54.218Z,9.48
2018-11-03T23:02:21.847Z,8.35
2018-11-03T23:04:50.445Z,9.75
2018-11-03T23:07:17.947Z,10.80
2018-11-03T23:09:45.392Z,8.15
2018-11-03T23:12:12.850Z,9.98
2018-11-03T23:14:40.355Z,8.55
2018-11-03T23:17:07.788Z,7.50
2018-11-03T23:19:35.248Z,9.20
2018-11-03T23:22:02.743Z,8.00
2018-11-03T23:24:30.154Z,7.20
2018-11-03T23:26:57.634Z,8.13
2018-11-03T23:29:25.134Z,9.65
2018-11-03T23:31:52.532Z,8.77
2018-11-03T23:34:20.011Z,9.52
2018-11-03T23:36:47.472Z,8.93
2018-11-03T23:39:14.947Z,8.00
2018-11-03T23:41:42.379Z,5.95
2018-11-03T23:44:09.823Z,7.80
2018-11-03T23:46:37.289Z,9.73
2018-11-03T23:49:05.518Z,7.47
2018-11-03T23:51:32.965Z,7.25
2018-11-03T23:54:00.409Z,8.85
2018-11-03T23:56:27.909Z,6.35
2018-11-03T23:58:55.696Z,7.35
